createdAt,value
2019-05-01T00:00:33.988Z,14.00
2019-05-01T00:03:32.203Z,14.00
2019-05-01T00:06:01.982Z,14.00
2019-05-01T00:08:31.335Z,14.00
2019-05-01T00:11:00.733Z,13.90
2019-05-01T00:13:30.072Z,13.90
2019-05-01T00:16:00.543Z,13.90
2019-05-01T00:18:30.041Z,13.90
2019-05-01T00:20:59.514Z,13.90
2019-05-01T00:23:28.928Z,13.90
2019-05-01T00:25:58.409Z,13.90
2019-05-01T00:28:27.764Z,13.90
2019-05-01T00:30:57.116Z,13.90
2019-05-01T00:33:26.822Z,13.90
2019-05-01T00:35:56.170Z,13.90
2019-05-01T00:38:25.504Z,13.80
2019-05-01T00:40:57.031Z,13.80
2019-05-01T00:43:26.577Z,13.80
2019-05-01T00:45:56.034Z,13.80
2019-05-01T00:48:26.753Z,13.80
2019-05-01T00:50:56.220Z,13.70
2019-05-01T00:53:27.819Z,13.70
2019-05-01T00:56:22.369Z,13.70
2019-05-01T01:02:06.611Z,13.70
2019-05-01T01:04:36.084Z,13.70
2019-05-01T01:07:05.457Z,13.70
2019-05-01T01:09:35.360Z,13.70
2019-05-01T01:12:04.866Z,13.70
2019-05-01T01:14:34.226Z,13.80
2019-05-01T01:17:04.085Z,13.80
2019-05-01T01:19:33.546Z,13.80
2019-05-01T01:22:03.158Z,13.80
2019-05-01T01:24:32.616Z,13.80
2019-05-01T01:27:02.085Z,13.90
2019-05-01T01:29:31.526Z,13.90
2019-05-01T01:32:00.927Z,13.90
2019-05-01T01:34:32.249Z,13.90
2019-05-01T01:37:01.728Z,13.90
2019-05-01T01:39:31.372Z,13.90
2019-05-01T01:42:00.726Z,13.90
2019-05-01T01:44:58.130Z,13.80
2019-05-01T01:47:28.586Z,13.80
2019-05-01T01:49:58.672Z,13.80
2019-05-01T01:52:28.264Z,13.80
2019-05-01T01:54:57.870Z,13.70
2019-05-01T01:57:28.463Z,13.70
2019-05-01T01:59:59.076Z,13.70
2019-05-01T02:02:36.764Z,13.70
2019-05-01T02:05:09.877Z,13.60
2019-05-01T02:07:39.539Z,13.60
2019-05-01T02:10:09.030Z,13.60
2019-05-01T02:12:39.927Z,13.60
2019-05-01T02:15:09.643Z,13.60
2019-05-01T02:17:39.005Z,13.60
2019-05-01T02:20:09.930Z,13.50
2019-05-01T02:22:51.273Z,13.50
2019-05-01T02:25:21.380Z,13.50
2019-05-01T02:28:08.901Z,13.50
2019-05-01T02:30:40.147Z,13.40
2019-05-01T02:33:12.602Z,13.40
2019-05-01T02:35:43.977Z,13.30
2019-05-01T02:38:15.623Z,13.30
2019-05-01T02:41:14.601Z,13.30
2019-05-01T02:43:47.218Z,13.20
2019-05-01T02:46:19.296Z,13.20
2019-05-01T02:48:54.619Z,13.10
2019-05-01T02:51:26.147Z,13.10
2019-05-01T02:53:56.548Z,13.10
2019-05-01T02:59:08.788Z,13.00
2019-05-01T03:01:47.167Z,13.00
2019-05-01T03:04:30.693Z,12.90
2019-05-01T03:07:01.076Z,12.90
2019-05-01T03:09:31.368Z,12.90
2019-05-01T03:12:02.616Z,12.80
2019-05-01T03:14:34.779Z,12.80
2019-05-01T03:17:07.876Z,12.70
2019-05-01T03:19:56.584Z,12.70
2019-05-01T03:22:57.490Z,12.70
2019-05-01T03:25:27.475Z,12.70
2019-05-01T03:30:20.885Z,12.70
2019-05-01T03:32:50.552Z,12.70
2019-05-01T03:35:20.237Z,12.60
2019-05-01T03:37:49.775Z,12.60
2019-05-01T03:40:19.356Z,12.60
2019-05-01T03:42:48.829Z,12.60
2019-05-01T03:45:18.658Z,12.60
2019-05-01T03:47:48.328Z,12.60
2019-05-01T03:50:17.759Z,12.60
2019-05-01T03:52:47.072Z,12.60
2019-05-01T03:55:17.089Z,12.60
2019-05-01T03:57:46.511Z,12.50
2019-05-01T04:00:20.172Z,12.50
2019-05-01T04:03:08.903Z,12.50
2019-05-01T04:05:38.661Z,12.50
2019-05-01T04:08:08.084Z,12.50
2019-05-01T04:10:38.604Z,12.40
2019-05-01T04:13:09.615Z,12.40
2019-05-01T04:15:39.523Z,12.40
2019-05-01T04:18:09.442Z,12.40
2019-05-01T04:20:40.591Z,12.40
2019-05-01T04:23:10.225Z,12.40
2019-05-01T04:25:39.843Z,12.40
2019-05-01T04:28:46.754Z,12.40
2019-05-01T04:31:38.993Z,12.40
2019-05-01T04:34:16.265Z,12.40
2019-05-01T04:36:48.870Z,12.40
2019-05-01T04:39:18.843Z,12.50
2019-05-01T04:41:48.546Z,12.50
2019-05-01T04:44:19.595Z,12.50
2019-05-01T04:46:50.096Z,12.50
2019-05-01T04:49:40.081Z,12.50
2019-05-01T04:52:09.832Z,12.50
2019-05-01T04:54:39.621Z,12.60
2019-05-01T04:57:09.426Z,12.60
2019-05-01T04:59:38.792Z,12.60
2019-05-01T05:02:11.268Z,12.60
2019-05-01T05:04:41.767Z,12.60
2019-05-01T05:07:11.469Z,12.70
2019-05-01T05:09:44.866Z,12.70
2019-05-01T05:12:30.307Z,12.70
2019-05-01T05:15:05.483Z,12.80
2019-05-01T05:17:34.872Z,12.80
2019-05-01T05:20:04.874Z,12.80
2019-05-01T05:22:34.750Z,12.80
2019-05-01T05:25:04.327Z,12.90
2019-05-01T05:27:34.705Z,13.00
2019-05-01T05:30:04.989Z,13.00
2019-05-01T05:32:36.336Z,13.00
2019-05-01T05:35:06.900Z,13.00
2019-05-01T05:37:43.797Z,13.10
2019-05-01T05:40:13.269Z,13.10
2019-05-01T05:42:42.634Z,13.20
2019-05-01T05:45:12.086Z,13.20
2019-05-01T05:47:42.946Z,13.30
2019-05-01T05:50:15.276Z,13.40
2019-05-01T05:52:54.691Z,13.50
2019-05-01T05:55:33.299Z,13.60
2019-05-01T05:58:15.227Z,13.70
2019-05-01T06:01:08.810Z,13.90
2019-05-01T06:04:11.310Z,14.10
2019-05-01T06:06:54.457Z,14.20
2019-05-01T06:09:31.463Z,14.40
2019-05-01T06:12:23.235Z,14.50
2019-05-01T06:17:59.203Z,14.70
2019-05-01T06:20:37.390Z,14.70
2019-05-01T06:23:29.902Z,14.80
2019-05-01T06:26:20.491Z,14.80
2019-05-01T06:28:50.481Z,14.90
2019-05-01T06:31:23.012Z,15.00
2019-05-01T06:33:54.598Z,15.10
2019-05-01T06:36:24.355Z,15.10
2019-05-01T06:38:54.533Z,15.30
2019-05-01T06:41:28.701Z,15.40
2019-05-01T06:44:07.539Z,15.40
2019-05-01T06:46:58.359Z,15.50
2019-05-01T06:49:56.419Z,15.60
2019-05-01T06:52:29.266Z,15.60
2019-05-01T06:54:59.221Z,15.60
2019-05-01T06:57:29.612Z,15.60
2019-05-01T07:00:03.164Z,15.60
2019-05-01T07:02:35.167Z,15.60
2019-05-01T07:05:04.361Z,15.60
2019-05-01T07:07:34.314Z,15.60
2019-05-01T07:10:04.964Z,15.60
2019-05-01T07:12:35.087Z,15.60
2019-05-01T07:15:05.402Z,15.60
2019-05-01T07:17:35.221Z,15.70
2019-05-01T07:20:27.738Z,15.70
2019-05-01T07:22:57.114Z,15.70
2019-05-01T07:25:26.558Z,15.70
2019-05-01T07:27:58.449Z,15.80
2019-05-01T07:30:49.794Z,15.80
2019-05-01T07:33:18.995Z,15.80
2019-05-01T07:35:50.716Z,15.90
2019-05-01T07:38:21.391Z,15.90
2019-05-01T07:40:52.182Z,15.90
2019-05-01T07:43:39.259Z,16.00
2019-05-01T07:46:23.686Z,16.00
2019-05-01T07:48:53.171Z,16.00
2019-05-01T07:51:22.691Z,16.00
2019-05-01T07:53:52.132Z,16.00
2019-05-01T07:56:22.826Z,16.00
2019-05-01T07:58:53.425Z,16.00
2019-05-01T08:01:40.589Z,16.00
2019-05-01T08:04:13.783Z,16.00
2019-05-01T08:06:41.130Z,16.00
2019-05-01T08:09:11.295Z,16.10
2019-05-01T08:11:44.065Z,16.10
2019-05-01T08:14:16.659Z,16.10
2019-05-01T08:16:45.388Z,16.20
2019-05-01T08:19:30.021Z,16.30
2019-05-01T08:22:06.544Z,16.30
2019-05-01T08:24:37.783Z,16.40
2019-05-01T08:30:12.783Z,16.50
2019-05-01T08:33:03.734Z,16.60
2019-05-01T08:35:36.525Z,16.60
2019-05-01T08:38:05.263Z,16.70
2019-05-01T08:40:37.172Z,16.70
2019-05-01T08:43:05.699Z,16.80
2019-05-01T08:45:51.729Z,16.80
2019-05-01T08:48:35.729Z,16.80
2019-05-01T08:51:02.870Z,16.90
2019-05-01T08:53:32.231Z,16.90
2019-05-01T08:56:01.693Z,17.00
2019-05-01T08:58:31.125Z,17.00
2019-05-01T09:01:00.497Z,17.10
2019-05-01T09:03:29.923Z,17.10
2019-05-01T09:05:59.276Z,17.20
2019-05-01T09:08:32.140Z,17.20
2019-05-01T09:11:00.589Z,17.20
2019-05-01T09:13:30.813Z,17.30
2019-05-01T09:16:01.327Z,17.30
2019-05-01T09:18:30.710Z,17.40
2019-05-01T09:21:00.033Z,17.40
2019-05-01T09:23:29.417Z,17.40
2019-05-01T09:26:20.818Z,17.50
2019-05-01T09:28:56.041Z,17.50
2019-05-01T09:31:27.099Z,17.50
2019-05-01T09:33:56.443Z,17.50
2019-05-01T09:36:26.453Z,17.60
2019-05-01T09:38:55.843Z,17.60
2019-05-01T09:41:37.605Z,17.60
2019-05-01T09:43:56.439Z,17.60
2019-05-01T09:46:26.115Z,17.70
2019-05-01T09:48:55.796Z,17.70
2019-05-01T09:51:47.496Z,17.70
2019-05-01T09:54:20.547Z,17.70
2019-05-01T09:56:50.024Z,17.70
2019-05-01T09:59:20.660Z,17.80
2019-05-01T10:01:51.171Z,17.80
2019-05-01T10:04:20.637Z,17.80
2019-05-01T10:06:52.379Z,17.80
2019-05-01T10:09:21.052Z,17.80
2019-05-01T10:11:50.404Z,17.90
2019-05-01T10:14:19.856Z,17.90
2019-05-01T10:16:49.368Z,17.90
2019-05-01T10:19:21.424Z,17.90
2019-05-01T10:21:50.808Z,17.90
2019-05-01T10:24:20.195Z,17.90
2019-05-01T10:26:55.186Z,18.00
2019-05-01T10:29:43.136Z,18.00
2019-05-01T10:32:43.603Z,18.00
2019-05-01T10:35:42.355Z,18.00
2019-05-01T10:38:04.670Z,18.00
2019-05-01T10:40:35.126Z,18.00
2019-05-01T10:43:04.774Z,18.00
2019-05-01T10:45:34.280Z,18.00
2019-05-01T10:48:03.684Z,18.00
2019-05-01T10:50:33.098Z,18.00
2019-05-01T10:53:03.111Z,18.00
2019-05-01T10:55:32.601Z,18.00
2019-05-01T10:58:03.575Z,18.00
2019-05-01T11:00:33.399Z,18.00
2019-05-01T11:03:02.783Z,18.00
2019-05-01T11:05:32.119Z,18.00
2019-05-01T11:08:01.476Z,17.90
2019-05-01T11:10:30.910Z,17.90
2019-05-01T11:13:00.240Z,17.90
2019-05-01T11:15:30.002Z,18.00
2019-05-01T11:17:59.336Z,17.90
2019-05-01T11:20:28.757Z,18.00
2019-05-01T11:22:58.188Z,18.00
2019-05-01T11:25:28.381Z,18.00
2019-05-01T11:27:57.983Z,18.00
2019-05-01T11:30:27.376Z,18.00
2019-05-01T11:33:03.742Z,18.00
2019-05-01T11:35:51.184Z,18.00
2019-05-01T11:38:39.521Z,18.00
2019-05-01T11:41:15.966Z,18.00
2019-05-01T11:43:45.350Z,18.00
2019-05-01T11:46:14.705Z,18.00
2019-05-01T11:48:45.506Z,18.00
2019-05-01T11:51:16.241Z,18.00
2019-05-01T11:53:45.607Z,18.10
2019-05-01T11:56:15.351Z,18.10
2019-05-01T11:58:44.813Z,18.10
2019-05-01T12:01:15.820Z,18.10
2019-05-01T12:03:45.223Z,18.20
2019-05-01T12:06:22.592Z,18.10
2019-05-01T12:08:45.839Z,18.10
2019-05-01T12:11:18.108Z,18.10
2019-05-01T12:13:47.459Z,18.20
2019-05-01T12:16:38.729Z,18.20
2019-05-01T12:19:08.148Z,18.20
2019-05-01T12:21:37.535Z,18.20
2019-05-01T12:24:07.000Z,18.20
2019-05-01T12:26:36.340Z,18.20
2019-05-01T12:29:06.647Z,18.20
2019-05-01T12:31:36.093Z,18.20
2019-05-01T12:34:05.465Z,18.20
2019-05-01T12:36:36.278Z,18.20
2019-05-01T12:39:08.751Z,18.20
2019-05-01T12:41:44.552Z,18.20
2019-05-01T12:44:14.040Z,18.20
2019-05-01T12:47:01.998Z,18.20
2019-05-01T12:49:32.983Z,18.20
2019-05-01T12:52:10.456Z,18.20
2019-05-01T12:54:58.868Z,18.20
2019-05-01T12:57:28.371Z,18.30
2019-05-01T13:00:08.172Z,18.30
2019-05-01T13:02:29.140Z,18.30
2019-05-01T13:04:58.544Z,18.30
2019-05-01T13:07:27.890Z,18.30
2019-05-01T13:09:57.225Z,18.30
2019-05-01T13:12:26.580Z,18.30
2019-05-01T13:14:55.919Z,18.30
2019-05-01T13:17:25.382Z,18.30
2019-05-01T13:19:54.799Z,18.30
2019-05-01T13:22:24.171Z,18.30
2019-05-01T13:24:54.967Z,18.30
2019-05-01T13:27:37.578Z,18.40
2019-05-01T13:30:18.216Z,18.40
2019-05-01T13:32:50.007Z,18.40
2019-05-01T13:35:19.531Z,18.40
2019-05-01T13:37:48.943Z,18.30
2019-05-01T13:40:18.838Z,18.30
2019-05-01T13:42:48.687Z,18.30
2019-05-01T13:45:18.304Z,18.30
2019-05-01T13:47:47.735Z,18.30
2019-05-01T13:50:17.226Z,18.30
2019-05-01T13:52:46.758Z,18.30
2019-05-01T13:55:16.496Z,18.30
2019-05-01T13:57:46.905Z,18.30
2019-05-01T14:00:17.188Z,18.30
2019-05-01T14:02:46.562Z,18.30
2019-05-01T14:05:15.955Z,18.30
2019-05-01T14:07:45.400Z,18.30
2019-05-01T14:10:14.999Z,18.30
2019-05-01T14:12:44.367Z,18.30
2019-05-01T14:15:14.266Z,18.30
2019-05-01T14:17:43.596Z,18.30
2019-05-01T14:20:30.871Z,18.30
2019-05-01T14:23:07.868Z,18.30
2019-05-01T14:25:54.831Z,18.30
2019-05-01T14:28:24.280Z,18.30
2019-05-01T14:30:53.721Z,18.30
2019-05-01T14:33:23.401Z,18.30
2019-05-01T14:35:52.764Z,18.30
2019-05-01T14:38:22.160Z,18.30
2019-05-01T14:40:51.609Z,18.30
2019-05-01T14:43:21.486Z,18.40
2019-05-01T14:45:55.874Z,18.30
2019-05-01T14:48:26.040Z,18.40
2019-05-01T14:50:55.408Z,18.40
2019-05-01T14:53:24.700Z,18.40
2019-05-01T14:55:54.115Z,18.40
2019-05-01T14:58:23.541Z,18.40
2019-05-01T15:00:52.870Z,18.40
2019-05-01T15:03:23.639Z,18.50
2019-05-01T15:05:54.219Z,18.50
2019-05-01T15:08:24.525Z,18.50
2019-05-01T15:10:55.112Z,18.50
2019-05-01T15:13:33.532Z,18.50
2019-05-01T15:16:12.514Z,18.50
2019-05-01T15:19:12.887Z,18.50
2019-05-01T15:21:42.395Z,18.50
2019-05-01T15:24:11.871Z,18.50
2019-05-01T15:26:41.288Z,18.50
2019-05-01T15:29:12.102Z,18.50
2019-05-01T15:31:41.536Z,18.60
2019-05-01T15:34:10.872Z,18.50
2019-05-01T15:36:40.253Z,18.60
2019-05-01T15:39:14.949Z,18.60
2019-05-01T15:42:12.445Z,18.50
2019-05-01T15:44:43.137Z,18.50
2019-05-01T15:47:12.600Z,18.60
2019-05-01T15:49:42.102Z,18.50
2019-05-01T15:52:11.460Z,18.50
2019-05-01T15:54:40.811Z,18.50
2019-05-01T15:57:10.330Z,18.50
2019-05-01T15:59:39.806Z,18.40
2019-05-01T16:02:28.254Z,18.40
2019-05-01T16:04:57.725Z,18.30
2019-05-01T16:07:27.092Z,18.30
2019-05-01T16:09:56.821Z,18.30
2019-05-01T16:12:40.248Z,18.20
2019-05-01T16:15:17.190Z,18.20
2019-05-01T16:17:46.612Z,18.20
2019-05-01T16:20:16.995Z,18.10
2019-05-01T16:22:49.359Z,18.10
2019-05-01T16:25:18.848Z,18.10
2019-05-01T16:27:48.430Z,18.10
2019-05-01T16:30:23.073Z,18.10
2019-05-01T16:32:52.415Z,18.00
2019-05-01T16:35:21.936Z,18.00
2019-05-01T16:37:51.446Z,17.90
2019-05-01T16:40:51.989Z,17.90
2019-05-01T16:43:21.400Z,17.90
2019-05-01T16:45:51.341Z,17.90
2019-05-01T16:48:23.094Z,17.90
2019-05-01T16:50:52.591Z,17.90
2019-05-01T16:53:22.042Z,17.80
2019-05-01T16:55:51.393Z,17.80
2019-05-01T16:58:21.097Z,17.70
2019-05-01T17:01:00.717Z,17.70
2019-05-01T17:03:35.266Z,17.70
2019-05-01T17:06:22.026Z,17.60
2019-05-01T17:08:57.918Z,17.60
2019-05-01T17:11:29.258Z,17.50
2019-05-01T17:13:58.678Z,17.50
2019-05-01T17:16:28.067Z,17.50
2019-05-01T17:18:57.422Z,17.40
2019-05-01T17:21:26.767Z,17.40
2019-05-01T17:23:56.150Z,17.40
2019-05-01T17:26:25.641Z,17.30
2019-05-01T17:28:55.079Z,17.30
2019-05-01T17:31:25.801Z,17.20
2019-05-01T17:33:56.743Z,17.20
2019-05-01T17:36:26.196Z,17.20
2019-05-01T17:38:55.542Z,17.10
2019-05-01T17:41:27.180Z,17.10
2019-05-01T17:43:56.784Z,17.00
2019-05-01T17:46:26.831Z,17.00
2019-05-01T17:48:56.194Z,16.90
2019-05-01T17:51:25.620Z,17.00
2019-05-01T17:53:55.065Z,16.90
2019-05-01T17:56:28.385Z,16.80
2019-05-01T17:58:55.424Z,16.90
2019-05-01T18:01:52.564Z,16.80
2019-05-01T18:04:28.828Z,16.80
2019-05-01T18:06:58.312Z,16.70
2019-05-01T18:09:27.747Z,16.60
2019-05-01T18:11:57.124Z,16.60
2019-05-01T18:14:26.525Z,16.60
2019-05-01T18:16:55.839Z,16.50
2019-05-01T18:19:25.291Z,16.50
2019-05-01T18:22:01.940Z,16.50
2019-05-01T18:24:58.411Z,16.40
2019-05-01T18:27:44.647Z,16.40
2019-05-01T18:30:20.399Z,16.40
2019-05-01T18:32:51.990Z,16.30
2019-05-01T18:35:18.237Z,16.30
2019-05-01T18:37:55.449Z,16.30
2019-05-01T18:40:29.611Z,16.30
2019-05-01T18:42:58.936Z,16.20
2019-05-01T18:45:51.653Z,16.20
2019-05-01T18:48:22.365Z,16.10
2019-05-01T18:50:54.594Z,16.20
2019-05-01T18:53:23.585Z,16.10
2019-05-01T18:55:53.014Z,16.10
2019-05-01T18:58:22.373Z,16.10
2019-05-01T19:00:52.087Z,16.10
2019-05-01T19:03:22.584Z,16.00
2019-05-01T19:05:52.238Z,16.10
2019-05-01T19:08:21.717Z,16.00
2019-05-01T19:10:51.055Z,16.00
2019-05-01T19:13:20.519Z,16.00
2019-05-01T19:15:49.964Z,16.00
2019-05-01T19:18:19.414Z,16.00
2019-05-01T19:20:59.284Z,16.00
2019-05-01T19:23:22.167Z,15.90
2019-05-01T19:25:56.435Z,15.90
2019-05-01T19:28:24.875Z,15.90
2019-05-01T19:30:56.731Z,15.90
2019-05-01T19:33:26.920Z,15.90
2019-05-01T19:35:57.017Z,15.90
2019-05-01T19:38:29.414Z,15.80
2019-05-01T19:41:03.514Z,15.80
2019-05-01T19:43:31.202Z,15.80
2019-05-01T19:46:01.707Z,15.80
2019-05-01T19:48:32.215Z,15.80
2019-05-01T19:51:04.297Z,15.80
2019-05-01T19:53:36.319Z,15.80
2019-05-01T19:56:06.483Z,15.80
2019-05-01T19:58:36.484Z,15.70
2019-05-01T20:01:07.393Z,15.70
2019-05-01T20:03:38.593Z,15.70
2019-05-01T20:06:08.988Z,15.70
2019-05-01T20:08:39.203Z,15.70
2019-05-01T20:11:09.969Z,15.60
2019-05-01T20:13:40.393Z,15.70
2019-05-01T20:16:11.467Z,15.70
2019-05-01T20:18:41.548Z,15.70
2019-05-01T20:21:11.935Z,15.70
2019-05-01T20:23:42.098Z,15.70
2019-05-01T20:26:11.449Z,15.70
2019-05-01T20:28:40.768Z,15.70
2019-05-01T20:31:10.158Z,15.70
2019-05-01T20:33:44.074Z,15.70
2019-05-01T20:36:10.653Z,15.70
2019-05-01T20:38:41.354Z,15.70
2019-05-01T20:41:15.744Z,15.60
2019-05-01T20:43:43.403Z,15.60
2019-05-01T20:46:13.228Z,15.60
2019-05-01T20:48:42.618Z,15.50
2019-05-01T20:51:11.965Z,15.50
2019-05-01T20:53:43.939Z,15.30
2019-05-01T20:56:30.554Z,15.30
2019-05-01T20:59:03.328Z,15.20
2019-05-01T21:01:32.219Z,15.20
2019-05-01T21:04:26.394Z,15.20
2019-05-01T21:07:29.969Z,15.10
2019-05-01T21:10:00.348Z,15.20
2019-05-01T21:12:29.794Z,15.10
2019-05-01T21:14:59.115Z,15.10
2019-05-01T21:17:28.503Z,15.00
2019-05-01T21:19:57.960Z,15.00
2019-05-01T21:22:27.372Z,14.90
2019-05-01T21:24:56.896Z,14.90
2019-05-01T21:27:27.489Z,14.90
2019-05-01T21:29:56.880Z,14.90
2019-05-01T21:32:28.360Z,14.90
2019-05-01T21:34:57.742Z,14.80
2019-05-01T21:37:27.150Z,14.80
2019-05-01T21:39:56.582Z,14.80
2019-05-01T21:42:25.888Z,14.80
2019-05-01T21:44:55.225Z,14.80
2019-05-01T21:47:24.579Z,14.80
2019-05-01T21:49:53.941Z,14.90
2019-05-01T21:52:26.861Z,14.90
2019-05-01T21:54:57.043Z,14.90
2019-05-01T21:57:29.617Z,14.90
2019-05-01T21:59:57.883Z,14.90
2019-05-01T22:02:27.345Z,14.90
2019-05-01T22:04:56.819Z,14.80
2019-05-01T22:07:27.915Z,14.90
2019-05-01T22:09:57.514Z,14.90
2019-05-01T22:12:27.266Z,14.90
2019-05-01T22:15:10.956Z,14.90
2019-05-01T22:17:55.342Z,14.90
2019-05-01T22:20:34.314Z,15.00
2019-05-01T22:23:08.369Z,15.00
2019-05-01T22:25:42.235Z,15.00
2019-05-01T22:28:20.016Z,15.00
2019-05-01T22:30:54.675Z,15.00
2019-05-01T22:33:25.330Z,15.00
2019-05-01T22:35:55.701Z,15.00
2019-05-01T22:38:25.078Z,15.00
2019-05-01T22:41:06.664Z,15.00
2019-05-01T22:46:09.323Z,15.00
2019-05-01T22:48:40.023Z,15.10
2019-05-01T22:54:10.980Z,15.10
2019-05-01T22:56:41.090Z,15.00
2019-05-01T22:59:11.995Z,15.00
2019-05-01T23:01:42.724Z,15.10
2019-05-01T23:04:16.668Z,15.10
2019-05-01T23:06:43.359Z,15.10
2019-05-01T23:09:14.159Z,15.10
2019-05-01T23:11:45.538Z,15.10
2019-05-01T23:14:15.153Z,15.20
2019-05-01T23:17:10.734Z,15.20
2019-05-01T23:19:40.344Z,15.20
2019-05-01T23:22:28.872Z,15.10
2019-05-01T23:24:58.300Z,15.10
2019-05-01T23:27:29.202Z,15.10
2019-05-01T23:29:58.855Z,15.00
2019-05-01T23:32:28.236Z,15.00
2019-05-01T23:34:57.665Z,15.00
2019-05-01T23:37:27.258Z,15.00
2019-05-01T23:39:58.393Z,15.00
2019-05-01T23:42:27.760Z,14.90
2019-05-01T23:44:58.395Z,14.90
2019-05-01T23:47:27.822Z,14.90
2019-05-01T23:49:57.264Z,14.90
2019-05-01T23:52:26.715Z,14.90
2019-05-01T23:54:56.164Z,14.90
2019-05-01T23:57:26.256Z,14.90
2019-05-01T23:59:57.618Z,14.90
